< < Back
Terminal Aerodrome Forecast


Current Version              Previous Versions:   1  2  3  4  5  6  7  8  9  

Terminal Aerodrome Forecast

736
FTUS42 KTAE 282327
TAFDHN
TAF
KDHN 282327Z 2900/2924 VRB04KT P6SM BKN250
     FM291400 35006KT P6SM FEW050
     FM292000 34007KT P6SM VCSH SCT060=



Latest METAR

030
SAUS70 KWBC 290400 RRK
MTRDHN
METAR KDHN 290353Z AUTO 27003KT 10SM CLR 24/20 A3010 RMK AO2 SLP188
T02390200


USA.gov is the U.S. government's official web portal to all federal, state and local government web resources and services.